Quick Links (Output Below):   Max & Min Temps   /   Climate Reports   /   Zone Forecasts
River Forecasts   /   Forestry Forecasts   /   Aviation Forecasts   /   Radars   /   Features

Terminal Aerodrome Forecast (Fort Smith)

Pick a Site:
Arkadelphia | El Dorado | Fayetteville | Fort Smith | Harrison | Highfill | Hot Springs | Jonesboro
Little Rock | Monticello | Mountain Home | Pine Bluff | Texarkana
 Forecast 

KFSM 211720Z 2118/2218 08005KT P6SM SCT050
     FM220000 00000KT P6SM SCT040
     FM220800 00000KT 4SM BR SCT030
     FM221400 06004KT P6SM SCT040=


 Latest METARs (Observations) 
How to Decode METARs
21Z KFSM 212053Z 06004KT 10SM CLR 27/16 A3004 RMK AO2 SLP167 T02670156
         56020
         
20Z KFSM 211953Z 00000KT 10SM CLR 26/15 A3005 RMK AO2 SLP171
         T02610150
         
19Z KFSM 211853Z 00000KT 10SM FEW037 25/15 A3006 RMK AO2 SLP177
         T02500150
         
18Z KFSM 211753Z 17005KT 10SM CLR 25/15 A3010 RMK AO2 SLP188 T02500150
         10250 20139 58013
         
17Z KFSM 211653Z VRB03KT 10SM CLR 23/16 A3012 RMK AO2 SLP198
         T02280156
         
16Z KFSM 211553Z 08005KT 10SM CLR 20/15 A3014 RMK AO2 SLP202
         T02000150
         
15Z KFSM 211453Z 08005KT 10SM CLR 18/14 A3014 RMK AO2 SLP202 T01780144
         51018
         
14Z KFSM 211353Z 06004KT 6SM BR SCT043 16/14 A3013 RMK AO2 SLP201
         T01610144
         
13Z KFSM 211253Z 00000KT 4SM BR BKN039 BKN048 14/13 A3011 RMK AO2
         SLP193 T01390133
         
12Z KFSM 211153Z 16004KT 5SM BR SCT039 14/13 A3008 RMK AO2 SLP184
         T01390128 10156 20133 53006
         
***** Today's Observations (Above) *****


Back to Main Page
http://www.srh.noaa.gov/lzk/qfcst.php

USA.gov is the U.S. government's official web portal to all federal, state and local government web resources and services.